sensor_id;sensor_type;location;lat;lon;timestamp;P1;durP1;ratioP1;P2;durP2;ratioP2
50010;SDS011;35899;50.352;19.390;2023-12-29T00:01:18;36.00;;;19.40;;
50010;SDS011;35899;50.352;19.390;2023-12-29T00:03:45;36.40;;;19.90;;
50010;SDS011;35899;50.352;19.390;2023-12-29T00:06:12;36.70;;;19.70;;
50010;SDS011;35899;50.352;19.390;2023-12-29T00:08:38;35.80;;;19.60;;
50010;SDS011;35899;50.352;19.390;2023-12-29T00:11:05;34.10;;;18.80;;
50010;SDS011;35899;50.352;19.390;2023-12-29T00:13:32;36.70;;;19.20;;
50010;SDS011;35899;50.352;19.390;2023-12-29T00:16:02;33.00;;;17.20;;
50010;SDS011;35899;50.352;19.390;2023-12-29T00:18:29;37.30;;;18.80;;
50010;SDS011;35899;50.352;19.390;2023-12-29T00:20:55;32.40;;;17.60;;
50010;SDS011;35899;50.352;19.390;2023-12-29T00:23:33;30.50;;;17.50;;
50010;SDS011;35899;50.352;19.390;2023-12-29T00:26:00;29.60;;;16.60;;
50010;SDS011;35899;50.352;19.390;2023-12-29T00:28:26;27.10;;;16.10;;
50010;SDS011;35899;50.352;19.390;2023-12-29T00:30:53;27.10;;;15.40;;
50010;SDS011;35899;50.352;19.390;2023-12-29T00:33:28;27.30;;;15.50;;
50010;SDS011;35899;50.352;19.390;2023-12-29T00:35:57;26.60;;;15.30;;
50010;SDS011;35899;50.352;19.390;2023-12-29T00:38:26;27.50;;;15.20;;
50010;SDS011;35899;50.352;19.390;2023-12-29T00:40:54;26.70;;;14.50;;
50010;SDS011;35899;50.352;19.390;2023-12-29T00:43:21;25.20;;;13.50;;
50010;SDS011;35899;50.352;19.390;2023-12-29T00:45:48;29.40;;;15.70;;
50010;SDS011;35899;50.352;19.390;2023-12-29T00:48:14;28.70;;;16.90;;
50010;SDS011;35899;50.352;19.390;2023-12-29T00:50:41;27.50;;;15.40;;
50010;SDS011;35899;50.352;19.390;2023-12-29T00:53:09;32.50;;;16.20;;
50010;SDS011;35899;50.352;19.390;2023-12-29T00:55:36;30.20;;;16.80;;
50010;SDS011;35899;50.352;19.390;2023-12-29T00:58:03;29.90;;;16.50;;
50010;SDS011;35899;50.352;19.390;2023-12-29T01:00:30;28.70;;;15.20;;
50010;SDS011;35899;50.352;19.390;2023-12-29T01:02:57;29.30;;;15.40;;
50010;SDS011;35899;50.352;19.390;2023-12-29T01:05:23;30.10;;;15.90;;
50010;SDS011;35899;50.352;19.390;2023-12-29T01:07:50;27.80;;;15.80;;
50010;SDS011;35899;50.352;19.390;2023-12-29T01:10:17;25.10;;;14.60;;
50010;SDS011;35899;50.352;19.390;2023-12-29T01:12:43;29.00;;;15.50;;
50010;SDS011;35899;50.352;19.390;2023-12-29T01:15:10;26.60;;;14.40;;
50010;SDS011;35899;50.352;19.390;2023-12-29T01:17:36;25.20;;;13.80;;
50010;SDS011;35899;50.352;19.390;2023-12-29T01:20:03;24.10;;;13.80;;
50010;SDS011;35899;50.352;19.390;2023-12-29T01:22:30;39.20;;;17.50;;
50010;SDS011;35899;50.352;19.390;2023-12-29T01:25:00;26.10;;;14.30;;
50010;SDS011;35899;50.352;19.390;2023-12-29T01:27:26;29.80;;;15.50;;
50010;SDS011;35899;50.352;19.390;2023-12-29T01:29:54;26.60;;;14.90;;
50010;SDS011;35899;50.352;19.390;2023-12-29T01:32:20;24.20;;;15.00;;
50010;SDS011;35899;50.352;19.390;2023-12-29T01:34:48;26.20;;;14.70;;
50010;SDS011;35899;50.352;19.390;2023-12-29T01:37:14;25.60;;;14.50;;
50010;SDS011;35899;50.352;19.390;2023-12-29T01:39:41;25.80;;;13.80;;
50010;SDS011;35899;50.352;19.390;2023-12-29T01:42:09;23.90;;;13.60;;
50010;SDS011;35899;50.352;19.390;2023-12-29T01:44:36;41.60;;;18.00;;
50010;SDS011;35899;50.352;19.390;2023-12-29T01:47:21;25.30;;;14.60;;
50010;SDS011;35899;50.352;19.390;2023-12-29T01:49:49;26.80;;;14.20;;
50010;SDS011;35899;50.352;19.390;2023-12-29T01:52:17;34.10;;;15.20;;
50010;SDS011;35899;50.352;19.390;2023-12-29T01:54:45;25.20;;;13.80;;
50010;SDS011;35899;50.352;19.390;2023-12-29T01:57:14;25.80;;;13.60;;
50010;SDS011;35899;50.352;19.390;2023-12-29T01:59:41;23.80;;;13.60;;
50010;SDS011;35899;50.352;19.390;2023-12-29T02:02:08;27.20;;;14.30;;
50010;SDS011;35899;50.352;19.390;2023-12-29T02:04:35;24.70;;;13.10;;
50010;SDS011;35899;50.352;19.390;2023-12-29T02:07:04;26.20;;;14.30;;
50010;SDS011;35899;50.352;19.390;2023-12-29T02:09:30;25.50;;;14.10;;
50010;SDS011;35899;50.352;19.390;2023-12-29T02:11:58;23.00;;;13.90;;
50010;SDS011;35899;50.352;19.390;2023-12-29T02:14:24;25.10;;;13.80;;
50010;SDS011;35899;50.352;19.390;2023-12-29T02:17:04;31.80;;;13.80;;
50010;SDS011;35899;50.352;19.390;2023-12-29T02:20:04;23.40;;;13.60;;
50010;SDS011;35899;50.352;19.390;2023-12-29T02:22:31;22.80;;;13.60;;
50010;SDS011;35899;50.352;19.390;2023-12-29T02:24:58;24.90;;;12.90;;
50010;SDS011;35899;50.352;19.390;2023-12-29T02:32:38;27.40;;;13.60;;
50010;SDS011;35899;50.352;19.390;2023-12-29T02:35:08;26.10;;;13.90;;
50010;SDS011;35899;50.352;19.390;2023-12-29T02:37:37;25.80;;;13.40;;
50010;SDS011;35899;50.352;19.390;2023-12-29T02:40:06;26.10;;;13.80;;
50010;SDS011;35899;50.352;19.390;2023-12-29T02:42:34;27.40;;;14.10;;
50010;SDS011;35899;50.352;19.390;2023-12-29T02:45:00;37.00;;;14.90;;
50010;SDS011;35899;50.352;19.390;2023-12-29T02:47:27;24.10;;;13.30;;
50010;SDS011;35899;50.352;19.390;2023-12-29T02:49:54;25.20;;;12.40;;
50010;SDS011;35899;50.352;19.390;2023-12-29T02:52:20;40.70;;;16.80;;
50010;SDS011;35899;50.352;19.390;2023-12-29T02:54:47;183.60;;;57.00;;
50010;SDS011;35899;50.352;19.390;2023-12-29T02:57:14;52.90;;;21.00;;
50010;SDS011;35899;50.352;19.390;2023-12-29T02:59:40;27.20;;;14.80;;
50010;SDS011;35899;50.352;19.390;2023-12-29T03:02:07;38.80;;;19.40;;
50010;SDS011;35899;50.352;19.390;2023-12-29T03:04:34;27.60;;;15.60;;
50010;SDS011;35899;50.352;19.390;2023-12-29T03:07:00;23.40;;;13.10;;
50010;SDS011;35899;50.352;19.390;2023-12-29T03:09:27;27.40;;;15.00;;
50010;SDS011;35899;50.352;19.390;2023-12-29T03:11:53;33.50;;;15.80;;
50010;SDS011;35899;50.352;19.390;2023-12-29T03:14:20;24.90;;;13.80;;
50010;SDS011;35899;50.352;19.390;2023-12-29T03:16:46;24.80;;;13.00;;
50010;SDS011;35899;50.352;19.390;2023-12-29T03:19:13;27.50;;;14.30;;
50010;SDS011;35899;50.352;19.390;2023-12-29T03:21:39;31.90;;;17.50;;
50010;SDS011;35899;50.352;19.390;2023-12-29T03:24:06;41.30;;;19.80;;
50010;SDS011;35899;50.352;19.390;2023-12-29T03:26:33;31.80;;;15.80;;
50010;SDS011;35899;50.352;19.390;2023-12-29T03:29:00;109.60;;;47.80;;
50010;SDS011;35899;50.352;19.390;2023-12-29T03:31:26;64.10;;;28.30;;
50010;SDS011;35899;50.352;19.390;2023-12-29T03:33:53;83.10;;;36.00;;
50010;SDS011;35899;50.352;19.390;2023-12-29T03:36:20;76.50;;;32.70;;
50010;SDS011;35899;50.352;19.390;2023-12-29T03:38:46;44.40;;;18.30;;
50010;SDS011;35899;50.352;19.390;2023-12-29T03:41:13;52.60;;;21.00;;
50010;SDS011;35899;50.352;19.390;2023-12-29T03:43:40;22.10;;;12.30;;
50010;SDS011;35899;50.352;19.390;2023-12-29T03:46:19;34.20;;;15.10;;
50010;SDS011;35899;50.352;19.390;2023-12-29T03:48:47;36.60;;;15.80;;
50010;SDS011;35899;50.352;19.390;2023-12-29T03:51:15;21.60;;;11.10;;
50010;SDS011;35899;50.352;19.390;2023-12-29T03:53:43;145.90;;;47.30;;
50010;SDS011;35899;50.352;19.390;2023-12-29T03:56:13;39.10;;;16.10;;
50010;SDS011;35899;50.352;19.390;2023-12-29T03:58:41;48.20;;;17.10;;
50010;SDS011;35899;50.352;19.390;2023-12-29T04:01:11;78.70;;;22.10;;
50010;SDS011;35899;50.352;19.390;2023-12-29T04:03:39;50.40;;;18.00;;
50010;SDS011;35899;50.352;19.390;2023-12-29T04:06:07;21.90;;;10.40;;
50010;SDS011;35899;50.352;19.390;2023-12-29T04:08:34;22.30;;;10.30;;
50010;SDS011;35899;50.352;19.390;2023-12-29T04:11:01;20.30;;;10.50;;
50010;SDS011;35899;50.352;19.390;2023-12-29T04:13:28;33.00;;;14.80;;
50010;SDS011;35899;50.352;19.390;2023-12-29T04:15:55;49.70;;;18.50;;
50010;SDS011;35899;50.352;19.390;2023-12-29T04:18:22;63.40;;;21.80;;
50010;SDS011;35899;50.352;19.390;2023-12-29T04:20:50;24.40;;;12.30;;
50010;SDS011;35899;50.352;19.390;2023-12-29T04:23:17;24.60;;;12.00;;
50010;SDS011;35899;50.352;19.390;2023-12-29T04:25:43;29.70;;;12.90;;
50010;SDS011;35899;50.352;19.390;2023-12-29T04:28:10;46.10;;;18.70;;
50010;SDS011;35899;50.352;19.390;2023-12-29T04:30:36;22.10;;;11.20;;
50010;SDS011;35899;50.352;19.390;2023-12-29T04:33:03;19.00;;;10.10;;
50010;SDS011;35899;50.352;19.390;2023-12-29T04:35:30;50.40;;;20.10;;
50010;SDS011;35899;50.352;19.390;2023-12-29T04:37:57;41.90;;;17.30;;
50010;SDS011;35899;50.352;19.390;2023-12-29T04:40:24;16.20;;;8.60;;
50010;SDS011;35899;50.352;19.390;2023-12-29T04:42:50;19.30;;;9.40;;
50010;SDS011;35899;50.352;19.390;2023-12-29T04:45:17;14.50;;;8.20;;
50010;SDS011;35899;50.352;19.390;2023-12-29T04:47:43;13.80;;;8.30;;
50010;SDS011;35899;50.352;19.390;2023-12-29T04:50:10;20.40;;;9.50;;
50010;SDS011;35899;50.352;19.390;2023-12-29T04:52:37;16.00;;;8.20;;
50010;SDS011;35899;50.352;19.390;2023-12-29T04:55:03;20.40;;;9.90;;
50010;SDS011;35899;50.352;19.390;2023-12-29T04:57:30;16.30;;;9.20;;
50010;SDS011;35899;50.352;19.390;2023-12-29T04:59:56;17.60;;;9.50;;
50010;SDS011;35899;50.352;19.390;2023-12-29T05:02:23;15.50;;;8.80;;
50010;SDS011;35899;50.352;19.390;2023-12-29T05:04:50;15.10;;;8.10;;
50010;SDS011;35899;50.352;19.390;2023-12-29T05:07:16;13.40;;;7.40;;
50010;SDS011;35899;50.352;19.390;2023-12-29T05:09:43;15.20;;;7.00;;
50010;SDS011;35899;50.352;19.390;2023-12-29T05:12:09;13.40;;;7.10;;
50010;SDS011;35899;50.352;19.390;2023-12-29T05:14:36;12.60;;;7.00;;
50010;SDS011;35899;50.352;19.390;2023-12-29T06:03:56;11.50;;;6.40;;
50010;SDS011;35899;50.352;19.390;2023-12-29T06:12:54;11.30;;;6.00;;
50010;SDS011;35899;50.352;19.390;2023-12-29T06:15:54;11.20;;;6.50;;
50010;SDS011;35899;50.352;19.390;2023-12-29T06:24:27;10.80;;;5.60;;
50010;SDS011;35899;50.352;19.390;2023-12-29T06:54:24;10.00;;;4.80;;
50010;SDS011;35899;50.352;19.390;2023-12-29T07:16:54;12.00;;;5.60;;
50010;SDS011;35899;50.352;19.390;2023-12-29T07:29:03;8.50;;;5.20;;
50010;SDS011;35899;50.352;19.390;2023-12-29T07:31:30;10.80;;;5.40;;
50010;SDS011;35899;50.352;19.390;2023-12-29T07:33:59;8.70;;;5.40;;
50010;SDS011;35899;50.352;19.390;2023-12-29T07:36:26;8.90;;;4.90;;
50010;SDS011;35899;50.352;19.390;2023-12-29T07:38:53;30.70;;;12.10;;
50010;SDS011;35899;50.352;19.390;2023-12-29T07:41:19;11.20;;;5.80;;
50010;SDS011;35899;50.352;19.390;2023-12-29T07:43:46;17.80;;;7.60;;
50010;SDS011;35899;50.352;19.390;2023-12-29T07:46:13;10.80;;;6.20;;
50010;SDS011;35899;50.352;19.390;2023-12-29T07:48:40;13.90;;;6.40;;
50010;SDS011;35899;50.352;19.390;2023-12-29T07:51:07;12.30;;;5.90;;
50010;SDS011;35899;50.352;19.390;2023-12-29T07:53:33;11.00;;;6.40;;
50010;SDS011;35899;50.352;19.390;2023-12-29T07:56:00;13.60;;;6.60;;
50010;SDS011;35899;50.352;19.390;2023-12-29T07:58:26;10.20;;;6.20;;
50010;SDS011;35899;50.352;19.390;2023-12-29T08:00:53;11.20;;;5.50;;
50010;SDS011;35899;50.352;19.390;2023-12-29T08:03:20;11.90;;;5.60;;
50010;SDS011;35899;50.352;19.390;2023-12-29T08:05:46;10.00;;;5.90;;
50010;SDS011;35899;50.352;19.390;2023-12-29T08:08:16;10.10;;;5.40;;
50010;SDS011;35899;50.352;19.390;2023-12-29T08:10:42;7.80;;;5.30;;
50010;SDS011;35899;50.352;19.390;2023-12-29T08:13:10;10.20;;;5.50;;
50010;SDS011;35899;50.352;19.390;2023-12-29T08:15:37;10.90;;;5.80;;
50010;SDS011;35899;50.352;19.390;2023-12-29T08:18:04;8.50;;;4.60;;
50010;SDS011;35899;50.352;19.390;2023-12-29T08:20:31;8.60;;;4.70;;
50010;SDS011;35899;50.352;19.390;2023-12-29T08:22:58;8.10;;;4.90;;
50010;SDS011;35899;50.352;19.390;2023-12-29T08:25:25;7.30;;;4.80;;
50010;SDS011;35899;50.352;19.390;2023-12-29T08:27:51;8.80;;;4.90;;
50010;SDS011;35899;50.352;19.390;2023-12-29T08:30:18;7.60;;;4.20;;
50010;SDS011;35899;50.352;19.390;2023-12-29T08:32:45;7.40;;;3.90;;
50010;SDS011;35899;50.352;19.390;2023-12-29T08:35:11;7.30;;;4.50;;
50010;SDS011;35899;50.352;19.390;2023-12-29T08:37:38;8.60;;;4.90;;
50010;SDS011;35899;50.352;19.390;2023-12-29T08:40:05;8.60;;;4.80;;
50010;SDS011;35899;50.352;19.390;2023-12-29T08:42:32;10.90;;;4.90;;
50010;SDS011;35899;50.352;19.390;2023-12-29T08:44:59;7.60;;;5.00;;
50010;SDS011;35899;50.352;19.390;2023-12-29T08:47:26;10.60;;;4.40;;
50010;SDS011;35899;50.352;19.390;2023-12-29T08:49:52;6.80;;;3.70;;
50010;SDS011;35899;50.352;19.390;2023-12-29T08:52:19;8.20;;;4.60;;
50010;SDS011;35899;50.352;19.390;2023-12-29T08:58:33;8.50;;;4.10;;
50010;SDS011;35899;50.352;19.390;2023-12-29T09:01:00;7.70;;;3.70;;
50010;SDS011;35899;50.352;19.390;2023-12-29T09:03:27;6.70;;;4.40;;
50010;SDS011;35899;50.352;19.390;2023-12-29T09:05:57;7.70;;;4.20;;
50010;SDS011;35899;50.352;19.390;2023-12-29T09:08:24;6.70;;;4.20;;
50010;SDS011;35899;50.352;19.390;2023-12-29T09:10:51;7.10;;;4.20;;
50010;SDS011;35899;50.352;19.390;2023-12-29T09:13:18;8.10;;;3.60;;
50010;SDS011;35899;50.352;19.390;2023-12-29T09:15:45;7.90;;;3.60;;
50010;SDS011;35899;50.352;19.390;2023-12-29T09:18:12;8.40;;;4.10;;
50010;SDS011;35899;50.352;19.390;2023-12-29T09:20:39;5.50;;;3.70;;
50010;SDS011;35899;50.352;19.390;2023-12-29T09:23:06;9.50;;;4.20;;
50010;SDS011;35899;50.352;19.390;2023-12-29T09:25:32;8.40;;;3.80;;
50010;SDS011;35899;50.352;19.390;2023-12-29T09:27:59;6.20;;;3.50;;
50010;SDS011;35899;50.352;19.390;2023-12-29T09:30:26;7.60;;;3.50;;
50010;SDS011;35899;50.352;19.390;2023-12-29T09:32:54;7.30;;;3.50;;
50010;SDS011;35899;50.352;19.390;2023-12-29T09:35:21;6.30;;;3.70;;
50010;SDS011;35899;50.352;19.390;2023-12-29T09:37:47;6.10;;;3.90;;
50010;SDS011;35899;50.352;19.390;2023-12-29T09:40:14;7.00;;;3.70;;
50010;SDS011;35899;50.352;19.390;2023-12-29T09:42:43;6.80;;;3.90;;
50010;SDS011;35899;50.352;19.390;2023-12-29T09:45:10;7.10;;;3.60;;
50010;SDS011;35899;50.352;19.390;2023-12-29T09:47:39;6.80;;;3.80;;
50010;SDS011;35899;50.352;19.390;2023-12-29T09:50:11;7.20;;;3.30;;
50010;SDS011;35899;50.352;19.390;2023-12-29T09:52:39;5.60;;;3.40;;
50010;SDS011;35899;50.352;19.390;2023-12-29T09:55:10;7.60;;;3.60;;
50010;SDS011;35899;50.352;19.390;2023-12-29T09:57:37;6.20;;;3.40;;
50010;SDS011;35899;50.352;19.390;2023-12-29T10:00:05;5.90;;;3.30;;
50010;SDS011;35899;50.352;19.390;2023-12-29T10:02:37;5.90;;;3.40;;
50010;SDS011;35899;50.352;19.390;2023-12-29T10:05:04;7.60;;;3.40;;
50010;SDS011;35899;50.352;19.390;2023-12-29T10:07:37;7.30;;;3.30;;
50010;SDS011;35899;50.352;19.390;2023-12-29T10:10:05;5.80;;;3.30;;
50010;SDS011;35899;50.352;19.390;2023-12-29T10:12:33;6.60;;;3.10;;
50010;SDS011;35899;50.352;19.390;2023-12-29T10:23:17;4.90;;;2.90;;
50010;SDS011;35899;50.352;19.390;2023-12-29T10:25:49;6.40;;;3.30;;
50010;SDS011;35899;50.352;19.390;2023-12-29T10:28:15;7.10;;;3.30;;
50010;SDS011;35899;50.352;19.390;2023-12-29T10:30:42;5.90;;;3.10;;
50010;SDS011;35899;50.352;19.390;2023-12-29T10:33:09;6.30;;;3.20;;
50010;SDS011;35899;50.352;19.390;2023-12-29T10:35:36;8.60;;;3.50;;
50010;SDS011;35899;50.352;19.390;2023-12-29T10:38:12;5.00;;;2.50;;
50010;SDS011;35899;50.352;19.390;2023-12-29T10:40:40;6.70;;;3.20;;
50010;SDS011;35899;50.352;19.390;2023-12-29T10:43:07;5.30;;;3.20;;
50010;SDS011;35899;50.352;19.390;2023-12-29T10:45:34;6.10;;;2.90;;
50010;SDS011;35899;50.352;19.390;2023-12-29T10:48:00;5.40;;;2.70;;
50010;SDS011;35899;50.352;19.390;2023-12-29T10:50:27;5.90;;;2.80;;
50010;SDS011;35899;50.352;19.390;2023-12-29T10:53:13;4.60;;;2.70;;
50010;SDS011;35899;50.352;19.390;2023-12-29T10:55:41;5.60;;;3.10;;
50010;SDS011;35899;50.352;19.390;2023-12-29T10:58:07;6.30;;;3.60;;
50010;SDS011;35899;50.352;19.390;2023-12-29T11:00:34;4.90;;;2.60;;
50010;SDS011;35899;50.352;19.390;2023-12-29T11:03:01;4.10;;;2.40;;
50010;SDS011;35899;50.352;19.390;2023-12-29T11:05:28;4.30;;;2.70;;
50010;SDS011;35899;50.352;19.390;2023-12-29T11:07:54;4.10;;;2.40;;
50010;SDS011;35899;50.352;19.390;2023-12-29T11:10:25;4.70;;;2.50;;
50010;SDS011;35899;50.352;19.390;2023-12-29T11:12:58;4.70;;;2.70;;
50010;SDS011;35899;50.352;19.390;2023-12-29T11:15:26;5.00;;;3.00;;
50010;SDS011;35899;50.352;19.390;2023-12-29T11:17:54;3.90;;;2.10;;
50010;SDS011;35899;50.352;19.390;2023-12-29T11:20:22;4.80;;;2.70;;
50010;SDS011;35899;50.352;19.390;2023-12-29T11:22:49;5.50;;;2.80;;
50010;SDS011;35899;50.352;19.390;2023-12-29T11:25:16;6.50;;;3.20;;
50010;SDS011;35899;50.352;19.390;2023-12-29T11:27:43;6.20;;;2.80;;
50010;SDS011;35899;50.352;19.390;2023-12-29T11:30:11;4.80;;;2.60;;
50010;SDS011;35899;50.352;19.390;2023-12-29T11:32:51;5.00;;;2.80;;
50010;SDS011;35899;50.352;19.390;2023-12-29T11:35:31;6.60;;;2.80;;
50010;SDS011;35899;50.352;19.390;2023-12-29T11:38:18;5.30;;;3.00;;
50010;SDS011;35899;50.352;19.390;2023-12-29T11:41:13;5.40;;;3.20;;
50010;SDS011;35899;50.352;19.390;2023-12-29T11:43:42;5.10;;;3.20;;
50010;SDS011;35899;50.352;19.390;2023-12-29T11:49:10;5.40;;;3.10;;
50010;SDS011;35899;50.352;19.390;2023-12-29T11:51:41;5.30;;;3.30;;
50010;SDS011;35899;50.352;19.390;2023-12-29T11:54:09;4.20;;;2.50;;
50010;SDS011;35899;50.352;19.390;2023-12-29T11:56:37;5.90;;;3.20;;
50010;SDS011;35899;50.352;19.390;2023-12-29T11:59:12;4.80;;;3.10;;
50010;SDS011;35899;50.352;19.390;2023-12-29T12:01:43;4.20;;;2.80;;
50010;SDS011;35899;50.352;19.390;2023-12-29T12:07:17;4.80;;;2.90;;
50010;SDS011;35899;50.352;19.390;2023-12-29T12:12:57;4.00;;;3.00;;
50010;SDS011;35899;50.352;19.390;2023-12-29T12:17:53;6.10;;;3.00;;
50010;SDS011;35899;50.352;19.390;2023-12-29T12:20:24;6.30;;;3.00;;
50010;SDS011;35899;50.352;19.390;2023-12-29T12:22:58;5.30;;;3.40;;
50010;SDS011;35899;50.352;19.390;2023-12-29T12:25:26;5.30;;;3.00;;
50010;SDS011;35899;50.352;19.390;2023-12-29T12:27:53;4.60;;;2.80;;
50010;SDS011;35899;50.352;19.390;2023-12-29T12:30:20;7.40;;;3.70;;
50010;SDS011;35899;50.352;19.390;2023-12-29T12:33:08;5.30;;;2.90;;
50010;SDS011;35899;50.352;19.390;2023-12-29T12:35:34;5.30;;;3.10;;
50010;SDS011;35899;50.352;19.390;2023-12-29T12:38:10;5.50;;;3.40;;
50010;SDS011;35899;50.352;19.390;2023-12-29T12:40:38;6.50;;;3.60;;
50010;SDS011;35899;50.352;19.390;2023-12-29T12:43:07;5.40;;;3.50;;
50010;SDS011;35899;50.352;19.390;2023-12-29T12:45:35;12.80;;;7.00;;
50010;SDS011;35899;50.352;19.390;2023-12-29T12:48:12;7.10;;;3.40;;
50010;SDS011;35899;50.352;19.390;2023-12-29T12:50:46;5.60;;;3.30;;
50010;SDS011;35899;50.352;19.390;2023-12-29T12:53:14;6.20;;;3.20;;
50010;SDS011;35899;50.352;19.390;2023-12-29T12:55:41;6.00;;;4.10;;
50010;SDS011;35899;50.352;19.390;2023-12-29T12:58:09;6.90;;;3.60;;
50010;SDS011;35899;50.352;19.390;2023-12-29T13:00:36;8.90;;;4.00;;
50010;SDS011;35899;50.352;19.390;2023-12-29T13:03:03;7.60;;;4.00;;
50010;SDS011;35899;50.352;19.390;2023-12-29T13:05:30;6.50;;;3.80;;
50010;SDS011;35899;50.352;19.390;2023-12-29T13:07:57;8.40;;;4.10;;
50010;SDS011;35899;50.352;19.390;2023-12-29T13:10:24;6.80;;;4.00;;
50010;SDS011;35899;50.352;19.390;2023-12-29T13:12:54;7.70;;;4.20;;
50010;SDS011;35899;50.352;19.390;2023-12-29T13:15:21;8.10;;;3.90;;
50010;SDS011;35899;50.352;19.390;2023-12-29T13:17:54;10.80;;;4.30;;
50010;SDS011;35899;50.352;19.390;2023-12-29T13:20:24;7.30;;;4.20;;
50010;SDS011;35899;50.352;19.390;2023-12-29T13:22:51;11.00;;;4.40;;
50010;SDS011;35899;50.352;19.390;2023-12-29T13:25:18;9.30;;;4.00;;
50010;SDS011;35899;50.352;19.390;2023-12-29T13:27:51;8.70;;;3.80;;
50010;SDS011;35899;50.352;19.390;2023-12-29T13:30:20;7.40;;;3.60;;
50010;SDS011;35899;50.352;19.390;2023-12-29T13:32:47;7.80;;;3.90;;
50010;SDS011;35899;50.352;19.390;2023-12-29T13:38:09;9.00;;;4.30;;
50010;SDS011;35899;50.352;19.390;2023-12-29T13:40:39;6.60;;;3.90;;
50010;SDS011;35899;50.352;19.390;2023-12-29T13:43:12;7.00;;;3.70;;
50010;SDS011;35899;50.352;19.390;2023-12-29T13:45:43;7.10;;;3.70;;
50010;SDS011;35899;50.352;19.390;2023-12-29T13:48:10;9.60;;;4.10;;
50010;SDS011;35899;50.352;19.390;2023-12-29T13:50:38;6.90;;;3.90;;
50010;SDS011;35899;50.352;19.390;2023-12-29T13:53:05;8.90;;;4.40;;
50010;SDS011;35899;50.352;19.390;2023-12-29T13:55:32;8.30;;;4.10;;
50010;SDS011;35899;50.352;19.390;2023-12-29T13:57:59;7.90;;;3.80;;
50010;SDS011;35899;50.352;19.390;2023-12-29T14:00:26;8.00;;;3.60;;
50010;SDS011;35899;50.352;19.390;2023-12-29T14:05:22;8.40;;;4.60;;
50010;SDS011;35899;50.352;19.390;2023-12-29T14:07:54;9.50;;;4.50;;
50010;SDS011;35899;50.352;19.390;2023-12-29T14:10:34;8.30;;;4.00;;
50010;SDS011;35899;50.352;19.390;2023-12-29T14:13:08;9.40;;;4.40;;
50010;SDS011;35899;50.352;19.390;2023-12-29T14:15:38;8.30;;;4.10;;
50010;SDS011;35899;50.352;19.390;2023-12-29T14:20:39;9.40;;;4.90;;
50010;SDS011;35899;50.352;19.390;2023-12-29T14:23:06;8.70;;;4.30;;
50010;SDS011;35899;50.352;19.390;2023-12-29T14:25:33;6.90;;;4.40;;
50010;SDS011;35899;50.352;19.390;2023-12-29T14:28:01;11.00;;;5.00;;
50010;SDS011;35899;50.352;19.390;2023-12-29T14:30:29;7.80;;;4.00;;
50010;SDS011;35899;50.352;19.390;2023-12-29T14:32:56;9.50;;;4.50;;
50010;SDS011;35899;50.352;19.390;2023-12-29T14:35:22;10.30;;;4.80;;
50010;SDS011;35899;50.352;19.390;2023-12-29T14:37:49;10.90;;;5.90;;
50010;SDS011;35899;50.352;19.390;2023-12-29T14:40:16;10.00;;;5.50;;
50010;SDS011;35899;50.352;19.390;2023-12-29T14:42:42;12.20;;;6.40;;
50010;SDS011;35899;50.352;19.390;2023-12-29T14:45:09;11.30;;;6.00;;
50010;SDS011;35899;50.352;19.390;2023-12-29T14:47:36;14.50;;;6.20;;
50010;SDS011;35899;50.352;19.390;2023-12-29T14:50:05;14.30;;;7.70;;
50010;SDS011;35899;50.352;19.390;2023-12-29T14:52:35;16.50;;;7.00;;
50010;SDS011;35899;50.352;19.390;2023-12-29T14:55:01;12.80;;;6.30;;
50010;SDS011;35899;50.352;19.390;2023-12-29T14:57:38;12.80;;;6.10;;
50010;SDS011;35899;50.352;19.390;2023-12-29T15:00:05;12.10;;;7.00;;
50010;SDS011;35899;50.352;19.390;2023-12-29T15:02:34;11.20;;;6.20;;
50010;SDS011;35899;50.352;19.390;2023-12-29T15:05:01;14.10;;;6.90;;
50010;SDS011;35899;50.352;19.390;2023-12-29T15:07:28;12.30;;;6.30;;
50010;SDS011;35899;50.352;19.390;2023-12-29T15:09:55;41.80;;;17.70;;
50010;SDS011;35899;50.352;19.390;2023-12-29T15:12:21;14.10;;;7.00;;
50010;SDS011;35899;50.352;19.390;2023-12-29T15:14:48;14.30;;;7.00;;
50010;SDS011;35899;50.352;19.390;2023-12-29T15:17:14;68.70;;;32.90;;
50010;SDS011;35899;50.352;19.390;2023-12-29T15:19:41;20.30;;;10.30;;
50010;SDS011;35899;50.352;19.390;2023-12-29T15:22:07;14.70;;;7.80;;
50010;SDS011;35899;50.352;19.390;2023-12-29T15:24:34;32.60;;;14.70;;
50010;SDS011;35899;50.352;19.390;2023-12-29T15:27:01;16.50;;;8.00;;
50010;SDS011;35899;50.352;19.390;2023-12-29T15:29:27;28.20;;;11.90;;
50010;SDS011;35899;50.352;19.390;2023-12-29T15:31:54;66.60;;;27.00;;
50010;SDS011;35899;50.352;19.390;2023-12-29T15:34:20;72.10;;;26.30;;
50010;SDS011;35899;50.352;19.390;2023-12-29T15:36:47;68.90;;;29.70;;
50010;SDS011;35899;50.352;19.390;2023-12-29T15:39:14;181.50;;;71.10;;
50010;SDS011;35899;50.352;19.390;2023-12-29T15:41:40;21.30;;;11.40;;
50010;SDS011;35899;50.352;19.390;2023-12-29T15:44:07;28.50;;;13.70;;
50010;SDS011;35899;50.352;19.390;2023-12-29T15:46:34;12.70;;;6.20;;
50010;SDS011;35899;50.352;19.390;2023-12-29T15:49:00;29.30;;;15.90;;
50010;SDS011;35899;50.352;19.390;2023-12-29T15:51:27;15.60;;;6.50;;
50010;SDS011;35899;50.352;19.390;2023-12-29T15:53:54;15.10;;;7.90;;
50010;SDS011;35899;50.352;19.390;2023-12-29T15:56:20;13.80;;;8.20;;
50010;SDS011;35899;50.352;19.390;2023-12-29T15:58:47;22.30;;;9.70;;
50010;SDS011;35899;50.352;19.390;2023-12-29T16:01:21;13.20;;;5.90;;
50010;SDS011;35899;50.352;19.390;2023-12-29T16:03:48;16.60;;;6.70;;
50010;SDS011;35899;50.352;19.390;2023-12-29T16:06:21;17.40;;;10.50;;
50010;SDS011;35899;50.352;19.390;2023-12-29T16:08:48;15.00;;;7.40;;
50010;SDS011;35899;50.352;19.390;2023-12-29T16:11:19;13.00;;;6.70;;
50010;SDS011;35899;50.352;19.390;2023-12-29T16:13:49;12.50;;;6.60;;
50010;SDS011;35899;50.352;19.390;2023-12-29T16:16:16;17.50;;;7.80;;
50010;SDS011;35899;50.352;19.390;2023-12-29T16:18:43;13.80;;;6.80;;
50010;SDS011;35899;50.352;19.390;2023-12-29T16:21:11;12.50;;;6.30;;
50010;SDS011;35899;50.352;19.390;2023-12-29T16:23:38;13.40;;;6.70;;
50010;SDS011;35899;50.352;19.390;2023-12-29T16:26:05;11.10;;;5.70;;
50010;SDS011;35899;50.352;19.390;2023-12-29T16:28:33;12.90;;;6.00;;
50010;SDS011;35899;50.352;19.390;2023-12-29T16:31:05;11.20;;;5.90;;
50010;SDS011;35899;50.352;19.390;2023-12-29T16:33:36;11.40;;;5.70;;
50010;SDS011;35899;50.352;19.390;2023-12-29T16:36:10;12.70;;;5.80;;
50010;SDS011;35899;50.352;19.390;2023-12-29T16:38:38;11.80;;;6.20;;
50010;SDS011;35899;50.352;19.390;2023-12-29T16:41:12;13.70;;;5.30;;
50010;SDS011;35899;50.352;19.390;2023-12-29T16:43:39;12.80;;;5.90;;
50010;SDS011;35899;50.352;19.390;2023-12-29T16:46:06;15.20;;;7.10;;
50010;SDS011;35899;50.352;19.390;2023-12-29T16:48:33;11.30;;;5.90;;
50010;SDS011;35899;50.352;19.390;2023-12-29T16:51:00;15.40;;;6.60;;
50010;SDS011;35899;50.352;19.390;2023-12-29T16:53:27;12.00;;;5.50;;
50010;SDS011;35899;50.352;19.390;2023-12-29T16:55:54;17.50;;;7.60;;
50010;SDS011;35899;50.352;19.390;2023-12-29T16:58:20;11.00;;;6.40;;
50010;SDS011;35899;50.352;19.390;2023-12-29T17:00:47;12.60;;;6.60;;